sensor_id;sensor_type;location;lat;lon;timestamp;P1;durP1;ratioP1;P2;durP2;ratioP2
20203;SDS011;10261;49.010;12.034;2023-07-29T00:00:36;3.47;;;2.90;;
20203;SDS011;10261;49.010;12.034;2023-07-29T00:01:37;3.30;;;3.00;;
20203;SDS011;10261;49.010;12.034;2023-07-29T00:02:43;5.07;;;2.97;;
20203;SDS011;10261;49.010;12.034;2023-07-29T00:03:45;3.22;;;2.40;;
20203;SDS011;10261;49.010;12.034;2023-07-29T00:04:48;4.93;;;2.63;;
20203;SDS011;10261;49.010;12.034;2023-07-29T00:05:50;3.55;;;2.83;;
20203;SDS011;10261;49.010;12.034;2023-07-29T00:06:53;2.90;;;2.15;;
20203;SDS011;10261;49.010;12.034;2023-07-29T00:07:55;4.07;;;2.97;;
20203;SDS011;10261;49.010;12.034;2023-07-29T00:08:58;2.50;;;2.30;;
20203;SDS011;10261;49.010;12.034;2023-07-29T00:10:00;2.53;;;2.33;;
20203;SDS011;10261;49.010;12.034;2023-07-29T00:11:04;2.80;;;2.50;;
20203;SDS011;10261;49.010;12.034;2023-07-29T00:12:06;3.05;;;2.50;;
20203;SDS011;10261;49.010;12.034;2023-07-29T00:13:09;2.50;;;2.20;;
20203;SDS011;10261;49.010;12.034;2023-07-29T00:14:11;4.60;;;2.38;;
20203;SDS011;10261;49.010;12.034;2023-07-29T00:15:13;2.90;;;2.60;;
20203;SDS011;10261;49.010;12.034;2023-07-29T00:16:16;2.83;;;2.53;;
20203;SDS011;10261;49.010;12.034;2023-07-29T00:17:19;6.57;;;2.60;;
20203;SDS011;10261;49.010;12.034;2023-07-29T00:18:22;3.40;;;2.90;;
20203;SDS011;10261;49.010;12.034;2023-07-29T00:19:24;6.80;;;2.75;;
20203;SDS011;10261;49.010;12.034;2023-07-29T00:20:27;3.42;;;2.80;;
20203;SDS011;10261;49.010;12.034;2023-07-29T00:21:29;3.30;;;3.00;;
20203;SDS011;10261;49.010;12.034;2023-07-29T00:22:32;3.10;;;2.80;;
20203;SDS011;10261;49.010;12.034;2023-07-29T00:23:34;4.05;;;2.70;;
20203;SDS011;10261;49.010;12.034;2023-07-29T00:24:37;6.10;;;3.30;;
20203;SDS011;10261;49.010;12.034;2023-07-29T00:25:41;3.55;;;3.08;;
20203;SDS011;10261;49.010;12.034;2023-07-29T00:26:45;4.43;;;2.78;;
20203;SDS011;10261;49.010;12.034;2023-07-29T00:27:47;3.40;;;2.67;;
20203;SDS011;10261;49.010;12.034;2023-07-29T00:28:50;4.65;;;3.20;;
20203;SDS011;10261;49.010;12.034;2023-07-29T00:29:52;4.18;;;2.70;;
20203;SDS011;10261;49.010;12.034;2023-07-29T00:30:54;3.88;;;3.03;;
20203;SDS011;10261;49.010;12.034;2023-07-29T00:31:57;6.88;;;2.70;;
20203;SDS011;10261;49.010;12.034;2023-07-29T00:33:00;5.30;;;2.95;;
20203;SDS011;10261;49.010;12.034;2023-07-29T00:34:02;3.45;;;2.97;;
20203;SDS011;10261;49.010;12.034;2023-07-29T00:35:05;3.00;;;2.67;;
20203;SDS011;10261;49.010;12.034;2023-07-29T00:36:08;3.13;;;2.83;;
20203;SDS011;10261;49.010;12.034;2023-07-29T00:37:11;3.65;;;2.75;;
20203;SDS011;10261;49.010;12.034;2023-07-29T00:38:13;3.10;;;2.80;;
20203;SDS011;10261;49.010;12.034;2023-07-29T00:39:16;3.60;;;2.50;;
20203;SDS011;10261;49.010;12.034;2023-07-29T00:40:19;4.43;;;2.70;;
20203;SDS011;10261;49.010;12.034;2023-07-29T00:41:22;3.45;;;2.42;;
20203;SDS011;10261;49.010;12.034;2023-07-29T00:42:27;3.20;;;2.50;;
20203;SDS011;10261;49.010;12.034;2023-07-29T00:43:28;3.55;;;2.85;;
20203;SDS011;10261;49.010;12.034;2023-07-29T00:44:31;4.88;;;2.70;;
20203;SDS011;10261;49.010;12.034;2023-07-29T00:45:34;5.35;;;3.80;;
20203;SDS011;10261;49.010;12.034;2023-07-29T00:46:37;4.03;;;3.28;;
20203;SDS011;10261;49.010;12.034;2023-07-29T00:47:41;3.70;;;3.22;;
20203;SDS011;10261;49.010;12.034;2023-07-29T00:48:45;4.05;;;2.65;;
20203;SDS011;10261;49.010;12.034;2023-07-29T00:49:47;2.90;;;2.45;;
20203;SDS011;10261;49.010;12.034;2023-07-29T00:51:04;2.50;;;2.22;;
20203;SDS011;10261;49.010;12.034;2023-07-29T00:52:07;4.60;;;3.20;;
20203;SDS011;10261;49.010;12.034;2023-07-29T00:53:12;3.67;;;2.42;;
20203;SDS011;10261;49.010;12.034;2023-07-29T00:54:14;2.58;;;2.28;;
20203;SDS011;10261;49.010;12.034;2023-07-29T00:55:17;3.47;;;2.70;;
20203;SDS011;10261;49.010;12.034;2023-07-29T00:56:19;4.68;;;3.08;;
20203;SDS011;10261;49.010;12.034;2023-07-29T00:57:22;3.67;;;2.63;;
20203;SDS011;10261;49.010;12.034;2023-07-29T00:58:27;4.05;;;2.45;;
20203;SDS011;10261;49.010;12.034;2023-07-29T00:59:30;2.90;;;2.10;;
20203;SDS011;10261;49.010;12.034;2023-07-29T01:00:33;3.28;;;2.70;;
20203;SDS011;10261;49.010;12.034;2023-07-29T01:01:36;2.95;;;2.72;;
20203;SDS011;10261;49.010;12.034;2023-07-29T01:02:38;4.13;;;3.10;;
20203;SDS011;10261;49.010;12.034;2023-07-29T01:03:41;2.80;;;2.60;;
20203;SDS011;10261;49.010;12.034;2023-07-29T01:04:50;5.47;;;2.80;;
20203;SDS011;10261;49.010;12.034;2023-07-29T01:05:59;4.10;;;3.10;;
20203;SDS011;10261;49.010;12.034;2023-07-29T01:07:11;3.60;;;3.30;;
20203;SDS011;10261;49.010;12.034;2023-07-29T01:08:25;4.07;;;3.38;;
20203;SDS011;10261;49.010;12.034;2023-07-29T01:09:41;4.30;;;3.15;;
20203;SDS011;10261;49.010;12.034;2023-07-29T01:10:54;3.25;;;2.50;;
20203;SDS011;10261;49.010;12.034;2023-07-29T01:12:06;5.15;;;2.80;;
20203;SDS011;10261;49.010;12.034;2023-07-29T01:13:16;2.85;;;2.60;;
20203;SDS011;10261;49.010;12.034;2023-07-29T01:14:29;2.92;;;2.47;;
20203;SDS011;10261;49.010;12.034;2023-07-29T01:15:40;4.57;;;3.00;;
20203;SDS011;10261;49.010;12.034;2023-07-29T01:16:50;3.40;;;3.10;;
20203;SDS011;10261;49.010;12.034;2023-07-29T01:17:59;4.80;;;3.22;;
20203;SDS011;10261;49.010;12.034;2023-07-29T01:19:06;9.43;;;3.75;;
20203;SDS011;10261;49.010;12.034;2023-07-29T01:20:13;3.47;;;3.17;;
20203;SDS011;10261;49.010;12.034;2023-07-29T01:21:16;5.20;;;3.47;;
20203;SDS011;10261;49.010;12.034;2023-07-29T01:22:20;3.50;;;3.20;;
20203;SDS011;10261;49.010;12.034;2023-07-29T01:23:25;3.72;;;2.88;;
20203;SDS011;10261;49.010;12.034;2023-07-29T01:24:31;3.85;;;3.10;;
20203;SDS011;10261;49.010;12.034;2023-07-29T01:25:33;3.97;;;3.25;;
20203;SDS011;10261;49.010;12.034;2023-07-29T01:26:35;3.40;;;2.83;;
20203;SDS011;10261;49.010;12.034;2023-07-29T01:27:38;3.97;;;3.25;;
20203;SDS011;10261;49.010;12.034;2023-07-29T01:28:40;4.13;;;3.35;;
20203;SDS011;10261;49.010;12.034;2023-07-29T01:29:42;5.28;;;3.85;;
20203;SDS011;10261;49.010;12.034;2023-07-29T01:30:45;5.22;;;3.97;;
20203;SDS011;10261;49.010;12.034;2023-07-29T01:31:53;6.07;;;3.83;;
20203;SDS011;10261;49.010;12.034;2023-07-29T01:32:59;4.18;;;3.58;;
20203;SDS011;10261;49.010;12.034;2023-07-29T01:34:13;5.68;;;3.55;;
20203;SDS011;10261;49.010;12.034;2023-07-29T01:35:21;5.32;;;3.80;;
20203;SDS011;10261;49.010;12.034;2023-07-29T01:36:26;4.82;;;4.40;;
20203;SDS011;10261;49.010;12.034;2023-07-29T01:37:33;4.32;;;3.92;;
20203;SDS011;10261;49.010;12.034;2023-07-29T01:38:38;3.83;;;3.53;;
20203;SDS011;10261;49.010;12.034;2023-07-29T01:39:44;3.70;;;3.40;;
20203;SDS011;10261;49.010;12.034;2023-07-29T01:40:48;4.55;;;4.00;;
20203;SDS011;10261;49.010;12.034;2023-07-29T01:41:52;4.10;;;3.50;;
20203;SDS011;10261;49.010;12.034;2023-07-29T01:42:54;7.75;;;4.20;;
20203;SDS011;10261;49.010;12.034;2023-07-29T01:43:57;4.50;;;3.78;;
20203;SDS011;10261;49.010;12.034;2023-07-29T01:45:00;5.45;;;4.50;;
20203;SDS011;10261;49.010;12.034;2023-07-29T01:46:02;5.03;;;4.45;;
20203;SDS011;10261;49.010;12.034;2023-07-29T01:47:05;5.40;;;4.47;;
20203;SDS011;10261;49.010;12.034;2023-07-29T01:48:07;4.70;;;4.05;;
20203;SDS011;10261;49.010;12.034;2023-07-29T01:49:10;5.70;;;4.50;;
20203;SDS011;10261;49.010;12.034;2023-07-29T01:50:12;7.55;;;4.55;;
20203;SDS011;10261;49.010;12.034;2023-07-29T01:51:15;4.55;;;4.15;;
20203;SDS011;10261;49.010;12.034;2023-07-29T01:52:17;5.05;;;4.40;;
20203;SDS011;10261;49.010;12.034;2023-07-29T01:53:20;6.35;;;4.63;;
20203;SDS011;10261;49.010;12.034;2023-07-29T01:54:23;5.00;;;4.25;;
20203;SDS011;10261;49.010;12.034;2023-07-29T01:55:26;7.05;;;5.53;;
20203;SDS011;10261;49.010;12.034;2023-07-29T01:56:28;6.55;;;4.60;;
20203;SDS011;10261;49.010;12.034;2023-07-29T01:57:31;6.13;;;5.20;;
20203;SDS011;10261;49.010;12.034;2023-07-29T01:58:33;5.00;;;4.53;;
20203;SDS011;10261;49.010;12.034;2023-07-29T01:59:36;5.03;;;4.30;;
20203;SDS011;10261;49.010;12.034;2023-07-29T02:00:38;4.82;;;4.40;;
20203;SDS011;10261;49.010;12.034;2023-07-29T02:01:41;7.22;;;4.65;;
20203;SDS011;10261;49.010;12.034;2023-07-29T02:02:43;6.30;;;5.10;;
20203;SDS011;10261;49.010;12.034;2023-07-29T02:03:47;5.05;;;4.53;;
20203;SDS011;10261;49.010;12.034;2023-07-29T02:04:54;7.65;;;5.60;;
20203;SDS011;10261;49.010;12.034;2023-07-29T02:05:57;5.85;;;5.03;;
20203;SDS011;10261;49.010;12.034;2023-07-29T02:06:59;7.60;;;5.50;;
20203;SDS011;10261;49.010;12.034;2023-07-29T02:08:02;6.68;;;6.00;;
20203;SDS011;10261;49.010;12.034;2023-07-29T02:09:04;6.28;;;5.50;;
20203;SDS011;10261;49.010;12.034;2023-07-29T02:10:08;6.15;;;5.45;;
20203;SDS011;10261;49.010;12.034;2023-07-29T02:11:10;7.55;;;5.50;;
20203;SDS011;10261;49.010;12.034;2023-07-29T02:12:13;8.18;;;5.85;;
20203;SDS011;10261;49.010;12.034;2023-07-29T02:13:15;5.93;;;5.40;;
20203;SDS011;10261;49.010;12.034;2023-07-29T02:14:18;5.75;;;5.20;;
20203;SDS011;10261;49.010;12.034;2023-07-29T02:15:20;6.07;;;5.47;;
20203;SDS011;10261;49.010;12.034;2023-07-29T02:16:23;6.40;;;5.78;;
20203;SDS011;10261;49.010;12.034;2023-07-29T02:17:25;6.13;;;5.30;;
20203;SDS011;10261;49.010;12.034;2023-07-29T02:18:28;10.25;;;5.38;;
20203;SDS011;10261;49.010;12.034;2023-07-29T02:19:30;6.47;;;5.80;;
20203;SDS011;10261;49.010;12.034;2023-07-29T02:20:33;8.85;;;5.57;;
20203;SDS011;10261;49.010;12.034;2023-07-29T02:21:35;7.07;;;5.45;;
20203;SDS011;10261;49.010;12.034;2023-07-29T02:22:37;6.28;;;5.68;;
20203;SDS011;10261;49.010;12.034;2023-07-29T02:23:39;5.72;;;4.95;;
20203;SDS011;10261;49.010;12.034;2023-07-29T02:24:41;6.53;;;5.13;;
20203;SDS011;10261;49.010;12.034;2023-07-29T02:25:46;6.43;;;5.40;;
20203;SDS011;10261;49.010;12.034;2023-07-29T02:26:48;6.88;;;5.13;;
20203;SDS011;10261;49.010;12.034;2023-07-29T02:27:50;4.90;;;4.47;;
20203;SDS011;10261;49.010;12.034;2023-07-29T02:28:52;5.88;;;4.85;;
20203;SDS011;10261;49.010;12.034;2023-07-29T02:29:55;5.80;;;5.30;;
20203;SDS011;10261;49.010;12.034;2023-07-29T02:31:09;6.18;;;5.20;;
20203;SDS011;10261;49.010;12.034;2023-07-29T02:32:16;5.95;;;4.60;;
20203;SDS011;10261;49.010;12.034;2023-07-29T02:33:18;5.53;;;5.00;;
20203;SDS011;10261;49.010;12.034;2023-07-29T02:34:21;8.43;;;4.75;;
20203;SDS011;10261;49.010;12.034;2023-07-29T02:35:23;7.20;;;5.38;;
20203;SDS011;10261;49.010;12.034;2023-07-29T02:36:26;6.00;;;4.80;;
20203;SDS011;10261;49.010;12.034;2023-07-29T02:37:28;7.07;;;4.65;;
20203;SDS011;10261;49.010;12.034;2023-07-29T02:38:30;6.30;;;4.88;;
20203;SDS011;10261;49.010;12.034;2023-07-29T02:39:32;5.55;;;4.85;;
20203;SDS011;10261;49.010;12.034;2023-07-29T02:40:35;7.03;;;5.20;;
20203;SDS011;10261;49.010;12.034;2023-07-29T02:41:38;6.32;;;5.30;;
20203;SDS011;10261;49.010;12.034;2023-07-29T02:42:41;5.57;;;5.07;;
20203;SDS011;10261;49.010;12.034;2023-07-29T02:43:43;9.40;;;5.45;;
20203;SDS011;10261;49.010;12.034;2023-07-29T02:44:50;7.38;;;4.32;;
20203;SDS011;10261;49.010;12.034;2023-07-29T02:45:52;6.55;;;5.10;;
20203;SDS011;10261;49.010;12.034;2023-07-29T02:46:55;5.38;;;4.40;;
20203;SDS011;10261;49.010;12.034;2023-07-29T02:47:57;5.60;;;4.82;;
20203;SDS011;10261;49.010;12.034;2023-07-29T02:49:01;8.98;;;4.63;;
20203;SDS011;10261;49.010;12.034;2023-07-29T02:50:04;6.53;;;4.93;;
20203;SDS011;10261;49.010;12.034;2023-07-29T02:51:07;5.03;;;4.35;;
20203;SDS011;10261;49.010;12.034;2023-07-29T02:52:09;8.35;;;5.05;;
20203;SDS011;10261;49.010;12.034;2023-07-29T02:53:12;5.00;;;4.53;;
20203;SDS011;10261;49.010;12.034;2023-07-29T02:54:14;5.95;;;4.70;;
20203;SDS011;10261;49.010;12.034;2023-07-29T02:55:17;7.15;;;4.78;;
20203;SDS011;10261;49.010;12.034;2023-07-29T02:56:19;6.22;;;5.00;;
20203;SDS011;10261;49.010;12.034;2023-07-29T02:57:23;7.07;;;5.82;;
20203;SDS011;10261;49.010;12.034;2023-07-29T02:58:25;5.10;;;4.63;;
20203;SDS011;10261;49.010;12.034;2023-07-29T02:59:28;6.57;;;4.75;;
20203;SDS011;10261;49.010;12.034;2023-07-29T03:00:31;5.65;;;4.80;;
20203;SDS011;10261;49.010;12.034;2023-07-29T03:01:34;6.05;;;5.45;;
20203;SDS011;10261;49.010;12.034;2023-07-29T03:02:36;5.40;;;4.90;;
20203;SDS011;10261;49.010;12.034;2023-07-29T03:03:39;10.50;;;5.78;;
20203;SDS011;10261;49.010;12.034;2023-07-29T03:04:41;7.78;;;5.22;;
20203;SDS011;10261;49.010;12.034;2023-07-29T03:05:44;7.82;;;5.53;;
20203;SDS011;10261;49.010;12.034;2023-07-29T03:06:46;6.47;;;5.57;;
20203;SDS011;10261;49.010;12.034;2023-07-29T03:07:49;6.80;;;5.90;;
20203;SDS011;10261;49.010;12.034;2023-07-29T03:08:51;6.53;;;5.18;;
20203;SDS011;10261;49.010;12.034;2023-07-29T03:09:54;8.13;;;5.63;;
20203;SDS011;10261;49.010;12.034;2023-07-29T03:10:56;8.50;;;5.00;;
20203;SDS011;10261;49.010;12.034;2023-07-29T03:11:59;8.52;;;6.13;;
20203;SDS011;10261;49.010;12.034;2023-07-29T03:13:03;6.32;;;5.43;;
20203;SDS011;10261;49.010;12.034;2023-07-29T03:14:06;6.05;;;5.45;;
20203;SDS011;10261;49.010;12.034;2023-07-29T03:15:08;6.60;;;5.63;;
20203;SDS011;10261;49.010;12.034;2023-07-29T03:16:11;6.80;;;6.07;;
20203;SDS011;10261;49.010;12.034;2023-07-29T03:17:15;6.43;;;5.80;;
20203;SDS011;10261;49.010;12.034;2023-07-29T03:18:18;7.57;;;6.32;;
20203;SDS011;10261;49.010;12.034;2023-07-29T03:19:20;6.95;;;6.25;;
20203;SDS011;10261;49.010;12.034;2023-07-29T03:20:23;7.30;;;6.00;;
20203;SDS011;10261;49.010;12.034;2023-07-29T03:21:24;7.38;;;6.28;;
20203;SDS011;10261;49.010;12.034;2023-07-29T03:22:27;7.32;;;6.47;;
20203;SDS011;10261;49.010;12.034;2023-07-29T03:23:29;10.00;;;5.70;;
20203;SDS011;10261;49.010;12.034;2023-07-29T03:24:32;7.50;;;6.47;;
20203;SDS011;10261;49.010;12.034;2023-07-29T03:25:35;7.28;;;6.50;;
20203;SDS011;10261;49.010;12.034;2023-07-29T03:26:37;7.13;;;6.25;;
20203;SDS011;10261;49.010;12.034;2023-07-29T03:27:40;6.57;;;5.95;;
20203;SDS011;10261;49.010;12.034;2023-07-29T03:28:43;6.03;;;5.45;;
20203;SDS011;10261;49.010;12.034;2023-07-29T03:29:46;7.68;;;6.72;;
20203;SDS011;10261;49.010;12.034;2023-07-29T03:30:49;7.40;;;6.50;;
20203;SDS011;10261;49.010;12.034;2023-07-29T03:31:52;10.43;;;6.95;;
20203;SDS011;10261;49.010;12.034;2023-07-29T03:32:53;8.30;;;6.80;;
20203;SDS011;10261;49.010;12.034;2023-07-29T03:33:56;8.20;;;6.00;;
20203;SDS011;10261;49.010;12.034;2023-07-29T03:34:58;8.27;;;7.32;;
20203;SDS011;10261;49.010;12.034;2023-07-29T03:36:01;6.65;;;5.97;;
20203;SDS011;10261;49.010;12.034;2023-07-29T03:37:03;7.05;;;6.07;;
20203;SDS011;10261;49.010;12.034;2023-07-29T03:38:07;7.78;;;5.63;;
20203;SDS011;10261;49.010;12.034;2023-07-29T03:39:08;9.30;;;6.47;;
20203;SDS011;10261;49.010;12.034;2023-07-29T03:40:10;7.60;;;6.80;;
20203;SDS011;10261;49.010;12.034;2023-07-29T03:41:13;9.35;;;6.90;;
20203;SDS011;10261;49.010;12.034;2023-07-29T03:42:15;7.07;;;6.38;;
20203;SDS011;10261;49.010;12.034;2023-07-29T03:43:18;7.13;;;6.20;;
20203;SDS011;10261;49.010;12.034;2023-07-29T03:44:21;7.70;;;4.97;;
20203;SDS011;10261;49.010;12.034;2023-07-29T03:45:24;7.72;;;6.70;;
20203;SDS011;10261;49.010;12.034;2023-07-29T03:46:26;7.28;;;6.20;;
20203;SDS011;10261;49.010;12.034;2023-07-29T03:47:29;9.25;;;6.47;;
20203;SDS011;10261;49.010;12.034;2023-07-29T03:48:31;9.45;;;6.80;;
20203;SDS011;10261;49.010;12.034;2023-07-29T03:49:34;9.40;;;6.40;;
20203;SDS011;10261;49.010;12.034;2023-07-29T03:50:36;8.27;;;6.50;;
20203;SDS011;10261;49.010;12.034;2023-07-29T03:51:39;6.95;;;6.22;;
20203;SDS011;10261;49.010;12.034;2023-07-29T03:52:41;8.05;;;6.70;;
20203;SDS011;10261;49.010;12.034;2023-07-29T03:53:44;9.15;;;6.30;;
20203;SDS011;10261;49.010;12.034;2023-07-29T03:54:46;9.52;;;6.93;;
20203;SDS011;10261;49.010;12.034;2023-07-29T03:55:49;7.50;;;6.55;;
20203;SDS011;10261;49.010;12.034;2023-07-29T03:56:51;8.85;;;6.53;;
20203;SDS011;10261;49.010;12.034;2023-07-29T03:57:54;7.25;;;6.10;;
20203;SDS011;10261;49.010;12.034;2023-07-29T03:59:02;10.50;;;6.95;;
20203;SDS011;10261;49.010;12.034;2023-07-29T04:00:07;7.45;;;6.10;;
20203;SDS011;10261;49.010;12.034;2023-07-29T04:01:11;9.00;;;6.10;;
20203;SDS011;10261;49.010;12.034;2023-07-29T04:02:13;9.25;;;6.32;;
20203;SDS011;10261;49.010;12.034;2023-07-29T04:03:17;7.30;;;5.70;;
20203;SDS011;10261;49.010;12.034;2023-07-29T04:04:18;7.07;;;6.32;;
20203;SDS011;10261;49.010;12.034;2023-07-29T04:05:22;9.85;;;6.13;;
20203;SDS011;10261;49.010;12.034;2023-07-29T04:06:24;8.98;;;6.45;;
20203;SDS011;10261;49.010;12.034;2023-07-29T04:07:27;7.80;;;6.15;;
20203;SDS011;10261;49.010;12.034;2023-07-29T04:08:29;6.60;;;5.97;;
20203;SDS011;10261;49.010;12.034;2023-07-29T04:09:31;9.50;;;6.68;;
20203;SDS011;10261;49.010;12.034;2023-07-29T04:10:34;9.27;;;6.95;;
20203;SDS011;10261;49.010;12.034;2023-07-29T04:11:36;10.73;;;7.18;;
20203;SDS011;10261;49.010;12.034;2023-07-29T04:12:38;9.82;;;7.07;;
20203;SDS011;10261;49.010;12.034;2023-07-29T04:13:41;7.78;;;7.05;;
20203;SDS011;10261;49.010;12.034;2023-07-29T04:14:43;9.15;;;6.90;;
20203;SDS011;10261;49.010;12.034;2023-07-29T04:15:47;13.60;;;6.47;;
20203;SDS011;10261;49.010;12.034;2023-07-29T04:16:49;10.25;;;7.97;;
20203;SDS011;10261;49.010;12.034;2023-07-29T04:17:52;10.27;;;7.60;;
20203;SDS011;10261;49.010;12.034;2023-07-29T04:18:54;10.85;;;8.48;;
20203;SDS011;10261;49.010;12.034;2023-07-29T04:19:57;11.70;;;8.57;;
20203;SDS011;10261;49.010;12.034;2023-07-29T04:20:59;13.05;;;8.75;;
20203;SDS011;10261;49.010;12.034;2023-07-29T04:22:02;14.48;;;8.52;;
20203;SDS011;10261;49.010;12.034;2023-07-29T04:23:04;13.80;;;9.80;;
20203;SDS011;10261;49.010;12.034;2023-07-29T04:24:07;12.85;;;9.82;;
20203;SDS011;10261;49.010;12.034;2023-07-29T04:25:09;14.90;;;9.38;;
20203;SDS011;10261;49.010;12.034;2023-07-29T04:26:11;12.70;;;9.10;;
20203;SDS011;10261;49.010;12.034;2023-07-29T04:27:14;12.98;;;9.20;;
20203;SDS011;10261;49.010;12.034;2023-07-29T04:28:16;13.23;;;10.32;;
20203;SDS011;10261;49.010;12.034;2023-07-29T04:29:18;9.82;;;6.90;;
20203;SDS011;10261;49.010;12.034;2023-07-29T04:30:20;10.98;;;8.13;;
20203;SDS011;10261;49.010;12.034;2023-07-29T04:31:25;16.67;;;9.13;;
20203;SDS011;10261;49.010;12.034;2023-07-29T04:32:27;14.75;;;9.95;;
20203;SDS011;10261;49.010;12.034;2023-07-29T04:33:30;13.90;;;9.55;;
20203;SDS011;10261;49.010;12.034;2023-07-29T04:34:34;13.30;;;8.73;;
20203;SDS011;10261;49.010;12.034;2023-07-29T04:35:36;11.30;;;9.88;;
20203;SDS011;10261;49.010;12.034;2023-07-29T04:36:39;13.13;;;9.50;;
20203;SDS011;10261;49.010;12.034;2023-07-29T04:37:41;13.63;;;10.77;;
20203;SDS011;10261;49.010;12.034;2023-07-29T04:38:44;18.40;;;10.25;;
20203;SDS011;10261;49.010;12.034;2023-07-29T04:39:46;11.38;;;9.23;;
20203;SDS011;10261;49.010;12.034;2023-07-29T04:40:49;12.48;;;9.20;;
20203;SDS011;10261;49.010;12.034;2023-07-29T04:41:51;14.48;;;9.70;;
20203;SDS011;10261;49.010;12.034;2023-07-29T04:42:54;17.27;;;10.35;;
20203;SDS011;10261;49.010;12.034;2023-07-29T04:43:56;12.40;;;10.05;;
20203;SDS011;10261;49.010;12.034;2023-07-29T04:44:58;14.98;;;10.50;;
20203;SDS011;10261;49.010;12.034;2023-07-29T04:46:00;12.38;;;9.18;;
20203;SDS011;10261;49.010;12.034;2023-07-29T04:47:05;12.88;;;8.85;;
20203;SDS011;10261;49.010;12.034;2023-07-29T04:48:07;13.10;;;8.25;;
20203;SDS011;10261;49.010;12.034;2023-07-29T04:49:10;13.82;;;8.60;;
20203;SDS011;10261;49.010;12.034;2023-07-29T04:50:12;14.20;;;10.15;;
20203;SDS011;10261;49.010;12.034;2023-07-29T04:51:15;15.65;;;9.70;;
20203;SDS011;10261;49.010;12.034;2023-07-29T04:52:17;14.43;;;10.50;;
20203;SDS011;10261;49.010;12.034;2023-07-29T04:53:20;11.63;;;9.50;;
20203;SDS011;10261;49.010;12.034;2023-07-29T04:54:22;13.95;;;11.02;;
20203;SDS011;10261;49.010;12.034;2023-07-29T04:55:25;18.05;;;11.15;;
20203;SDS011;10261;49.010;12.034;2023-07-29T04:56:27;16.35;;;10.15;;
20203;SDS011;10261;49.010;12.034;2023-07-29T04:57:30;17.38;;;12.07;;
20203;SDS011;10261;49.010;12.034;2023-07-29T04:58:32;16.20;;;12.07;;
20203;SDS011;10261;49.010;12.034;2023-07-29T04:59:36;16.02;;;10.98;;
20203;SDS011;10261;49.010;12.034;2023-07-29T05:00:38;18.02;;;12.13;;
20203;SDS011;10261;49.010;12.034;2023-07-29T05:01:41;20.00;;;11.43;;
20203;SDS011;10261;49.010;12.034;2023-07-29T05:02:46;21.15;;;11.90;;
20203;SDS011;10261;49.010;12.034;2023-07-29T05:03:48;18.55;;;12.23;;
20203;SDS011;10261;49.010;12.034;2023-07-29T05:04:50;19.90;;;13.18;;
20203;SDS011;10261;49.010;12.034;2023-07-29T05:05:53;21.02;;;13.40;;
20203;SDS011;10261;49.010;12.034;2023-07-29T05:06:56;20.23;;;12.80;;
20203;SDS011;10261;49.010;12.034;2023-07-29T05:07:59;18.67;;;12.25;;
20203;SDS011;10261;49.010;12.034;2023-07-29T05:09:11;21.27;;;13.55;;
20203;SDS011;10261;49.010;12.034;2023-07-29T05:10:15;24.27;;;13.88;;
20203;SDS011;10261;49.010;12.034;2023-07-29T05:11:17;19.35;;;12.95;;
20203;SDS011;10261;49.010;12.034;2023-07-29T05:12:20;16.95;;;11.00;;
20203;SDS011;10261;49.010;12.034;2023-07-29T05:13:21;18.20;;;12.70;;
20203;SDS011;10261;49.010;12.034;2023-07-29T05:14:24;12.05;;;9.48;;
20203;SDS011;10261;49.010;12.034;2023-07-29T05:15:26;16.17;;;9.75;;
20203;SDS011;10261;49.010;12.034;2023-07-29T05:16:29;15.82;;;8.65;;
20203;SDS011;10261;49.010;12.034;2023-07-29T05:17:31;13.52;;;9.80;;
20203;SDS011;10261;49.010;12.034;2023-07-29T05:18:35;13.27;;;9.63;;
20203;SDS011;10261;49.010;12.034;2023-07-29T05:19:37;18.40;;;11.13;;
20203;SDS011;10261;49.010;12.034;2023-07-29T05:20:40;17.30;;;9.90;;
20203;SDS011;10261;49.010;12.034;2023-07-29T05:21:42;12.52;;;9.85;;
20203;SDS011;10261;49.010;12.034;2023-07-29T05:22:46;15.55;;;9.60;;
20203;SDS011;10261;49.010;12.034;2023-07-29T05:23:48;13.70;;;9.60;;
20203;SDS011;10261;49.010;12.034;2023-07-29T05:24:51;11.32;;;9.48;;
20203;SDS011;10261;49.010;12.034;2023-07-29T05:25:53;13.43;;;8.88;;
20203;SDS011;10261;49.010;12.034;2023-07-29T05:26:56;10.63;;;8.27;;
20203;SDS011;10261;49.010;12.034;2023-07-29T05:27:58;11.52;;;8.50;;
20203;SDS011;10261;49.010;12.034;2023-07-29T05:29:01;11.88;;;7.55;;
20203;SDS011;10261;49.010;12.034;2023-07-29T05:30:03;8.35;;;7.47;;
20203;SDS011;10261;49.010;12.034;2023-07-29T05:31:07;9.88;;;8.13;;
20203;SDS011;10261;49.010;12.034;2023-07-29T05:32:09;11.45;;;8.23;;
20203;SDS011;10261;49.010;12.034;2023-07-29T05:33:12;11.18;;;8.25;;
20203;SDS011;10261;49.010;12.034;2023-07-29T05:34:15;8.70;;;6.80;;
20203;SDS011;10261;49.010;12.034;2023-07-29T05:35:18;11.02;;;8.10;;
20203;SDS011;10261;49.010;12.034;2023-07-29T05:36:20;6.95;;;5.82;;
20203;SDS011;10261;49.010;12.034;2023-07-29T05:37:23;9.35;;;7.00;;
20203;SDS011;10261;49.010;12.034;2023-07-29T05:38:25;9.85;;;7.55;;
20203;SDS011;10261;49.010;12.034;2023-07-29T05:39:28;11.73;;;7.90;;
20203;SDS011;10261;49.010;12.034;2023-07-29T05:40:31;8.52;;;7.45;;
20203;SDS011;10261;49.010;12.034;2023-07-29T05:41:34;8.25;;;7.20;;
20203;SDS011;10261;49.010;12.034;2023-07-29T05:42:36;7.30;;;6.22;;
20203;SDS011;10261;49.010;12.034;2023-07-29T05:43:38;7.43;;;6.63;;
20203;SDS011;10261;49.010;12.034;2023-07-29T05:44:41;10.65;;;6.80;;
20203;SDS011;10261;49.010;12.034;2023-07-29T05:45:43;8.77;;;7.35;;
20203;SDS011;10261;49.010;12.034;2023-07-29T05:46:46;9.90;;;6.57;;
20203;SDS011;10261;49.010;12.034;2023-07-29T05:47:48;10.85;;;5.85;;
20203;SDS011;10261;49.010;12.034;2023-07-29T05:48:51;10.32;;;6.85;;
20203;SDS011;10261;49.010;12.034;2023-07-29T05:49:55;7.88;;;7.07;;
20203;SDS011;10261;49.010;12.034;2023-07-29T05:51:01;7.03;;;5.72;;
20203;SDS011;10261;49.010;12.034;2023-07-29T05:52:03;8.43;;;6.15;;
20203;SDS011;10261;49.010;12.034;2023-07-29T05:53:06;8.90;;;5.35;;
20203;SDS011;10261;49.010;12.034;2023-07-29T05:54:09;7.82;;;5.88;;
20203;SDS011;10261;49.010;12.034;2023-07-29T05:55:11;7.13;;;6.13;;
20203;SDS011;10261;49.010;12.034;2023-07-29T05:56:13;7.50;;;6.43;;
20203;SDS011;10261;49.010;12.034;2023-07-29T05:57:15;11.77;;;5.80;;
20203;SDS011;10261;49.010;12.034;2023-07-29T05:58:18;6.28;;;5.63;;
20203;SDS011;10261;49.010;12.034;2023-07-29T05:59:20;7.32;;;5.95;;
20203;SDS011;10261;49.010;12.034;2023-07-29T06:00:23;5.35;;;4.85;;
20203;SDS011;10261;49.010;12.034;2023-07-29T06:01:25;5.97;;;5.40;;
20203;SDS011;10261;49.010;12.034;2023-07-29T06:02:28;7.65;;;5.45;;
20203;SDS011;10261;49.010;12.034;2023-07-29T06:03:30;6.20;;;5.43;;
20203;SDS011;10261;49.010;12.034;2023-07-29T06:04:34;4.80;;;4.40;;
20203;SDS011;10261;49.010;12.034;2023-07-29T06:05:37;5.97;;;4.85;;
20203;SDS011;10261;49.010;12.034;2023-07-29T06:06:40;5.63;;;5.13;;
20203;SDS011;10261;49.010;12.034;2023-07-29T06:07:43;5.28;;;4.53;;
20203;SDS011;10261;49.010;12.034;2023-07-29T06:08:46;5.70;;;4.90;;
20203;SDS011;10261;49.010;12.034;2023-07-29T06:09:48;7.10;;;4.85;;
20203;SDS011;10261;49.010;12.034;2023-07-29T06:10:51;5.70;;;5.15;;
20203;SDS011;10261;49.010;12.034;2023-07-29T06:11:53;6.00;;;5.05;;
20203;SDS011;10261;49.010;12.034;2023-07-29T06:12:56;5.80;;;4.80;;
20203;SDS011;10261;49.010;12.034;2023-07-29T06:13:58;6.85;;;4.63;;